Maningrida, Australia
Current Conditions -  °F | °C
As of 5:00 AM on Monday 26 Jan 2015 (Local Time) from YPGV Reporting Station
Clear Clear  
Wind Chill: 81°   Ceiling: Unl
Heat Index: 86°   Visibility: 6mi
Dew Point: 75°   Wind: 7mph
Humidity: 84%   Direction: 300°WNW
Pressure: 29.74"   Gusts: NA
Location:  12.21°S, 134.3°E
Report Text: YPGV 252000Z AUTO 30006KT 9999 // NCD 27/24 Q1007
Loading
Personal Weather Stations






























Interactive Weather Map New forecast layout! Learn more

10-Day Weather Forecast

Advertisements
Track Severe Weather on mobile